Time;durP1;ratioP1;P1;durP2;ratioP2;P2;SDS_P1;SDS_P2;PMS_P1;PMS_P2;Temp;Humidity;BMP_temperature;BMP_pressure;BME280_temperature;BME280_humidity;BME280_pressure;Samples;Min_cycle;Max_cycle;Signal;HPM_P1;HPM_P2
2022/07/14 00:01:08;;;;;;;2.40;2.20;;;;;;;16.12;64.68;97272.81;5007042;28;20064;-63
2022/07/14 00:03:36;;;;;;;2.42;2.33;;;;;;;16.16;63.87;97290.38;5007275;28;20124;-61
2022/07/14 00:06:03;;;;;;;2.65;2.45;;;;;;;16.04;64.11;97285.22;5006947;28;20497;-61
2022/07/14 00:08:30;;;;;;;2.35;2.20;;;;;;;15.74;64.31;97228.97;5006873;28;20533;-63
2022/07/14 00:10:56;;;;;;;2.60;2.50;;;;;;;15.95;64.33;97267.25;5011331;28;20049;-60
2022/07/14 00:13:23;;;;;;;4.65;2.28;;;;;;;15.51;66.08;97292.75;5006729;28;20065;-62
2022/07/14 00:15:50;;;;;;;2.75;2.53;;;;;;;15.69;66.01;97284.41;5012435;28;20053;-61
2022/07/14 00:18:17;;;;;;;2.53;2.33;;;;;;;15.81;65.42;97284.81;5016331;28;20053;-60
2022/07/14 00:20:45;;;;;;;2.70;2.50;;;;;;;15.44;66.94;97292.75;5019947;28;20041;-61
2022/07/14 00:23:12;;;;;;;3.50;2.35;;;;;;;15.60;66.46;97279.19;5015395;28;20512;-60
2022/07/14 00:25:38;;;;;;;4.93;2.35;;;;;;;15.38;66.02;97237.69;5018523;28;20508;-62
2022/07/14 00:28:05;;;;;;;2.58;2.22;;;;;;;15.86;65.41;97287.22;5006471;28;20066;-61
2022/07/14 00:30:32;;;;;;;3.78;2.53;;;;;;;15.80;65.83;97291.59;5011877;28;20500;-62
2022/07/14 00:32:59;;;;;;;2.47;2.30;;;;;;;15.79;65.73;97281.59;5013682;28;20060;-60
2022/07/14 00:35:25;;;;;;;2.35;1.90;;;;;;;15.45;65.76;97238.50;5021640;28;20056;-61
2022/07/14 00:37:52;;;;;;;3.05;2.45;;;;;;;15.80;65.45;97288.00;5007257;28;20061;-62
2022/07/14 00:40:19;;;;;;;4.07;2.60;;;;;;;15.38;65.98;97227.31;5010084;28;20056;-61
2022/07/14 00:42:48;;;;;;;5.13;2.00;;;;;;;15.63;66.41;97283.19;5007791;28;20054;-60
2022/07/14 00:45:18;;;;;;;8.18;2.60;;;;;;;15.43;66.84;97270.81;5009709;28;20065;-60
2022/07/14 00:47:46;;;;;;;2.33;2.17;;;;;;;15.24;67.11;97266.34;5007057;28;20061;-60
2022/07/14 00:50:15;;;;;;;2.90;2.10;;;;;;;15.20;67.55;97254.38;5008269;28;20042;-62
2022/07/14 00:52:44;;;;;;;2.35;2.15;;;;;;;14.86;68.12;97211.22;5005758;28;20058;-63
2022/07/14 00:55:12;;;;;;;5.00;2.30;;;;;;;15.34;68.11;97281.50;5007906;28;20050;-60
2022/07/14 00:57:39;;;;;;;2.45;2.25;;;;;;;15.26;68.06;97274.31;5008685;28;20081;-60
2022/07/14 01:00:08;;;;;;;2.30;2.10;;;;;;;14.83;68.57;97228.75;5008091;28;20042;-62
2022/07/14 01:02:35;;;;;;;3.33;2.22;;;;;;;15.42;67.98;97295.13;5008605;28;20064;-61
2022/07/14 01:05:04;;;;;;;2.28;2.17;;;;;;;15.26;69.13;97283.50;5006673;28;20077;-61
2022/07/14 01:07:31;;;;;;;4.00;2.40;;;;;;;15.37;68.42;97289.09;5009599;28;20437;-60
2022/07/14 01:09:57;;;;;;;5.28;2.17;;;;;;;15.24;68.65;97271.94;5006983;28;20049;-60
2022/07/14 01:12:24;;;;;;;2.70;2.30;;;;;;;15.06;68.41;97243.19;5005864;28;20092;-61
2022/07/14 01:14:51;;;;;;;2.30;2.13;;;;;;;15.02;70.94;97304.56;5005080;28;20065;-60
2022/07/14 01:17:17;;;;;;;4.13;2.60;;;;;;;14.51;71.66;97205.56;5010151;28;20054;-62
2022/07/14 01:19:47;;;;;;;3.20;2.17;;;;;;;15.05;70.03;97272.25;5005593;28;20066;-60
2022/07/14 01:22:14;;;;;;;3.20;2.97;;;;;;;15.13;70.20;97282.25;5010137;28;20045;-61
2022/07/14 01:24:41;;;;;;;3.55;2.42;;;;;;;14.81;70.28;97275.78;5006033;28;20046;-60
2022/07/14 01:27:07;;;;;;;3.92;2.42;;;;;;;15.03;69.89;97291.41;5008437;28;20073;-61
2022/07/14 01:29:34;;;;;;;5.13;2.60;;;;;;;15.21;69.49;97277.53;5005461;28;20053;-62
2022/07/14 01:32:01;;;;;;;2.88;2.30;;;;;;;14.76;69.47;97223.19;5007978;28;20046;-61
2022/07/14 01:34:28;;;;;;;2.40;2.20;;;;;;;15.12;69.59;97297.41;5005119;28;20053;-62
2022/07/14 01:36:55;;;;;;;2.42;2.22;;;;;;;15.11;69.62;97279.09;5010030;28;20344;-63
2022/07/14 01:39:21;;;;;;;2.20;2.00;;;;;;;15.31;69.36;97283.13;5003780;28;20046;-61
2022/07/14 01:41:49;;;;;;;6.82;3.47;;;;;;;15.34;68.79;97287.91;5011602;28;20053;-63
2022/07/14 01:44:16;;;;;;;3.95;2.60;;;;;;;15.10;69.35;97260.72;5019933;28;20049;-60
2022/07/14 01:46:43;;;;;;;3.88;2.47;;;;;;;15.32;68.44;97284.69;5009489;28;20401;-60
2022/07/14 01:49:10;;;;;;;2.45;2.25;;;;;;;14.89;67.95;97204.91;5005195;28;20108;-62
2022/07/14 01:51:36;;;;;;;2.83;2.25;;;;;;;14.89;68.61;97228.00;5009756;28;20053;-60
2022/07/14 01:54:06;;;;;;;2.70;2.45;;;;;;;15.34;68.26;97281.50;5005252;28;20054;-61
2022/07/14 01:56:39;;;;;;;2.95;2.58;;;;;;;15.38;68.83;97283.16;5007170;28;20053;-62
2022/07/14 01:59:05;;;;;;;3.88;2.40;;;;;;;15.14;68.63;97250.38;5005137;28;20054;-61
2022/07/14 02:01:41;;;;;;;4.15;2.70;;;;;;;15.35;68.85;97286.69;5010301;28;20053;-63
2022/07/14 02:04:14;;;;;;;3.50;2.15;;;;;;;15.34;69.03;97292.69;5004749;28;20050;-62
2022/07/14 02:06:43;;;;;;;4.00;2.30;;;;;;;15.33;69.02;97286.31;5008480;28;20053;-61
2022/07/14 02:09:10;;;;;;;2.60;2.40;;;;;;;15.03;69.66;97238.41;5004390;28;20058;-62
2022/07/14 02:14:23;;;;;;;3.60;2.50;;;;;;;15.27;69.66;97292.69;5005302;28;20061;-60
2022/07/14 02:16:50;;;;;;;2.92;2.42;;;;;;;15.03;69.62;97266.31;5013121;28;20068;-61
2022/07/14 02:19:17;;;;;;;3.58;2.38;;;;;;;15.10;69.79;97297.81;5005388;28;20061;-60
2022/07/14 02:21:44;;;;;;;2.67;2.40;;;;;;;15.08;70.18;97293.81;5009124;28;20057;-61
2022/07/14 02:24:11;;;;;;;2.58;2.38;;;;;;;15.05;70.21;97298.19;5004524;28;20061;-60
2022/07/14 02:26:38;;;;;;;2.28;2.08;;;;;;;15.01;70.34;97291.00;5009234;28;20046;-61
2022/07/14 02:29:06;;;;;;;2.40;2.03;;;;;;;15.14;70.00;97306.19;5003312;28;20053;-59
2022/07/14 02:31:34;;;;;;;2.50;2.30;;;;;;;15.03;70.16;97308.16;5011126;28;20062;-61
2022/07/14 02:34:02;;;;;;;3.05;2.38;;;;;;;14.80;70.82;97268.59;5019139;28;20165;-60
2022/07/14 02:36:30;;;;;;;2.55;2.35;;;;;;;14.71;71.13;97263.41;5009491;28;20054;-62
2022/07/14 02:38:56;;;;;;;2.60;2.00;;;;;;;15.05;70.82;97297.38;5004753;28;20058;-62
2022/07/14 02:41:23;;;;;;;2.70;2.28;;;;;;;14.79;70.85;97281.75;5014228;28;20371;-61
2022/07/14 02:43:50;;;;;;;2.97;2.53;;;;;;;14.89;71.21;97322.03;5004652;28;20050;-61
2022/07/14 02:46:16;;;;;;;4.72;2.42;;;;;;;14.68;72.41;97327.50;5009993;28;20064;-61
2022/07/14 02:48:43;;;;;;;4.20;2.70;;;;;;;14.28;74.74;97313.69;5004671;28;20090;-60
2022/07/14 02:51:10;;;;;;;2.58;2.38;;;;;;;14.43;75.39;97315.41;5011912;28;20046;-60
2022/07/14 02:53:37;;;;;;;4.25;2.70;;;;;;;14.48;74.72;97323.41;5008401;28;20337;-60
2022/07/14 02:56:05;;;;;;;3.65;2.40;;;;;;;13.80;76.34;97248.06;5004926;28;20052;-60
2022/07/14 02:58:33;;;;;;;2.83;2.50;;;;;;;13.96;76.08;97266.09;5004619;28;20512;-61
2022/07/14 03:01:00;;;;;;;3.03;2.58;;;;;;;14.37;75.87;97322.53;5004629;28;20046;-62
2022/07/14 03:03:27;;;;;;;3.42;2.40;;;;;;;14.36;75.57;97315.34;5004611;28;20139;-59
2022/07/14 03:05:53;;;;;;;3.13;2.25;;;;;;;14.47;74.25;97321.78;5003202;28;20054;-60
2022/07/14 03:08:20;;;;;;;4.45;2.45;;;;;;;14.43;74.12;97332.13;5005683;28;20066;-61
2022/07/14 03:10:49;;;;;;;2.65;2.45;;;;;;;14.24;74.28;97316.47;5012565;28;20111;-61
2022/07/14 03:13:15;;;;;;;2.85;2.45;;;;;;;14.47;74.02;97327.38;5008070;28;20483;-60
2022/07/14 03:15:42;;;;;;;2.63;2.38;;;;;;;14.37;73.64;97286.31;5012358;28;20061;-61
2022/07/14 03:18:09;;;;;;;2.95;2.28;;;;;;;14.63;73.63;97322.28;5007783;28;20057;-60
2022/07/14 03:20:36;;;;;;;3.55;2.40;;;;;;;14.83;73.08;97326.38;5013913;28;20620;-61
2022/07/14 03:23:02;;;;;;;5.90;2.92;;;;;;;14.69;72.71;97284.47;5008089;28;20057;-59
2022/07/14 03:25:29;;;;;;;2.53;2.35;;;;;;;14.90;72.00;97312.47;5011217;28;20056;-61
2022/07/14 03:27:56;;;;;;;3.53;2.58;;;;;;;15.14;71.32;97329.31;5008941;28;20058;-62
2022/07/14 03:30:23;;;;;;;2.85;2.65;;;;;;;14.78;73.41;97327.56;5010199;28;20054;-61
2022/07/14 03:32:50;;;;;;;3.00;2.70;;;;;;;14.90;73.16;97323.63;5009994;28;20054;-60
2022/07/14 03:35:17;;;;;;;3.75;2.78;;;;;;;14.89;72.23;97305.31;5008800;28;20053;-61
2022/07/14 03:37:43;;;;;;;2.42;2.22;;;;;;;15.00;71.98;97339.63;5011417;28;20045;-60
2022/07/14 03:40:11;;;;;;;3.15;2.67;;;;;;;14.19;74.94;97332.72;5007204;28;20057;-61
2022/07/14 03:42:38;;;;;;;3.83;2.47;;;;;;;14.29;75.23;97332.03;5011448;28;20498;-60
2022/07/14 03:45:05;;;;;;;3.75;2.58;;;;;;;14.19;74.13;97299.28;5007244;28;20444;-60
2022/07/14 03:47:32;;;;;;;2.92;2.60;;;;;;;14.29;75.44;97348.75;5009339;28;20050;-61
2022/07/14 03:49:59;;;;;;;7.90;2.72;;;;;;;14.21;76.69;97335.94;5008299;28;20490;-60
2022/07/14 03:52:25;;;;;;;2.58;2.38;;;;;;;14.42;76.29;97353.63;5011678;28;20148;-63
2022/07/14 03:54:52;;;;;;;6.13;2.75;;;;;;;14.56;76.05;97364.06;5008112;28;20500;-60
2022/07/14 03:57:19;;;;;;;5.38;2.60;;;;;;;14.22;78.04;97365.38;5011276;28;20062;-61
2022/07/14 03:59:45;;;;;;;3.00;2.80;;;;;;;14.45;77.67;97346.47;5006718;28;20057;-60
2022/07/14 04:02:12;;;;;;;2.90;2.70;;;;;;;12.75;76.72;97047.66;5012361;28;20065;-62
2022/07/14 04:04:39;;;;;;;5.93;2.92;;;;;;;14.51;75.34;97283.59;5005503;28;20509;-61
2022/07/14 04:07:07;;;;;;;3.28;2.90;;;;;;;15.13;74.17;97338.06;5011236;28;20061;-62
2022/07/14 04:09:34;;;;;;;3.58;2.75;;;;;;;14.97;73.08;97274.25;5006707;28;20046;-61
2022/07/14 04:12:01;;;;;;;7.07;2.90;;;;;;;15.83;71.57;97371.81;5006416;28;20081;-61
2022/07/14 04:14:28;;;;;;;4.07;2.65;;;;;;;15.94;70.86;97364.25;5009021;28;20058;-62
2022/07/14 04:16:55;;;;;;;4.78;3.20;;;;;;;15.99;70.51;97360.25;5012074;28;20056;-60
2022/07/14 04:19:22;;;;;;;7.93;3.78;;;;;;;16.17;69.80;97375.06;5024188;28;20053;-60
2022/07/14 04:21:48;;;;;;;4.00;3.70;;;;;;;15.94;69.94;97333.50;5012820;28;20061;-61
2022/07/14 04:24:15;;;;;;;3.33;2.97;;;;;;;16.15;68.77;97322.34;5005597;28;20069;-61
2022/07/14 04:26:42;;;;;;;6.65;3.65;;;;;;;16.59;68.18;97370.28;5011801;28;20058;-61
2022/07/14 04:29:10;;;;;;;6.78;3.67;;;;;;;16.43;68.28;97325.13;5005682;28;20064;-62
2022/07/14 04:31:37;;;;;;;7.05;3.67;;;;;;;14.73;66.94;97084.53;5011331;28;20512;-62
2022/07/14 04:34:04;;;;;;;3.50;3.17;;;;;;;16.97;67.28;97351.00;5006945;28;20104;-61
2022/07/14 04:36:30;;;;;;;3.75;3.35;;;;;;;17.24;66.77;97377.28;5011976;28;20053;-61
2022/07/14 04:38:57;;;;;;;11.48;4.57;;;;;;;17.16;66.68;97347.72;5006384;28;20050;-62
2022/07/14 04:41:25;;;;;;;5.32;3.45;;;;;;;17.35;66.63;97383.66;5011974;28;20045;-60
2022/07/14 04:43:52;;;;;;;4.03;3.00;;;;;;;17.49;66.27;97372.41;5006354;28;20049;-61
2022/07/14 04:46:19;;;;;;;3.88;3.58;;;;;;;17.64;65.62;97373.97;5013696;28;20424;-62
2022/07/14 04:54:17;;;;;;;3.83;3.15;;;;;;;18.15;62.06;97371.19;5005994;28;20055;-63
2022/07/14 04:56:44;;;;;;;2.97;2.78;;;;;;;18.31;61.05;97373.47;5011929;28;20062;-61
2022/07/14 04:59:25;;;;;;;4.55;3.40;;;;;;;18.01;60.44;97310.44;5005744;28;20529;-61
2022/07/14 05:01:52;;;;;;;3.60;3.20;;;;;;;18.57;59.94;97376.53;5010736;28;20076;-60
2022/07/14 05:04:19;;;;;;;3.30;3.08;;;;;;;18.73;59.29;97382.34;5005631;28;20319;-60
2022/07/14 05:06:49;;;;;;;5.10;3.40;;;;;;;18.91;58.96;97379.38;5010173;28;20097;-60
2022/07/14 05:09:19;;;;;;;4.38;3.55;;;;;;;18.93;58.67;97344.06;5020927;28;20058;-59
2022/07/14 05:11:46;;;;;;;5.40;3.08;;;;;;;19.16;57.96;97374.28;5012952;28;20124;-61
2022/07/14 05:14:13;;;;;;;7.72;3.63;;;;;;;19.24;58.39;97382.22;5005380;28;20046;-60
2022/07/14 05:16:39;;;;;;;4.05;2.97;;;;;;;19.35;58.45;97377.31;5010193;28;20046;-60
2022/07/14 05:19:26;;;;;;;3.83;3.17;;;;;;;19.64;56.14;97376.94;5004964;28;20065;-62
2022/07/14 05:21:53;;;;;;;3.17;2.92;;;;;;;19.87;55.98;97379.84;5010358;28;20054;-61
2022/07/14 05:24:20;;;;;;;4.75;3.53;;;;;;;19.68;55.65;97338.34;5005529;28;20045;-59
2022/07/14 05:26:46;;;;;;;4.25;3.85;;;;;;;20.12;55.41;97374.66;5010185;28;20064;-61
2022/07/14 05:29:17;;;;;;;3.33;3.13;;;;;;;20.10;54.92;97348.97;5022700;28;20080;-61
2022/07/14 05:31:43;;;;;;;3.90;3.60;;;;;;;20.17;54.19;97332.03;5013274;28;20085;-61
2022/07/14 05:34:10;;;;;;;3.47;2.67;;;;;;;20.30;54.97;97341.44;5023160;28;20057;-61
2022/07/14 05:36:37;;;;;;;5.15;3.53;;;;;;;20.66;54.97;97381.88;5013401;28;20053;-61
2022/07/14 05:39:04;;;;;;;3.38;3.08;;;;;;;20.66;53.31;97373.41;5005829;28;20057;-61
2022/07/14 05:41:31;;;;;;;3.97;3.25;;;;;;;20.62;52.76;97336.06;5011013;28;20054;-60
2022/07/14 05:43:57;;;;;;;3.28;3.08;;;;;;;18.70;52.53;97038.00;5012217;28;20049;-69
2022/07/14 05:46:24;;;;;;;3.20;3.00;;;;;;;20.65;52.44;97298.59;5020074;28;20045;-68
2022/07/14 05:48:51;;;;;;;3.83;3.50;;;;;;;21.07;51.13;97340.06;5004959;28;20054;-64
2022/07/14 05:51:20;;;;;;;3.40;3.13;;;;;;;21.62;51.40;97374.00;5015089;28;20140;-70
2022/07/14 05:53:48;;;;;;;3.55;3.25;;;;;;;21.90;51.53;97364.94;5012396;28;20063;-73
2022/07/14 05:56:18;;;;;;;3.60;3.30;;;;;;;22.12;49.77;97366.03;5014510;28;20053;-63
2022/07/14 05:58:46;;;;;;;3.67;3.33;;;;;;;21.90;49.48;97319.00;5015148;28;20056;-66
2022/07/14 06:01:13;;;;;;;5.10;3.08;;;;;;;22.49;49.04;97365.53;5010194;28;20056;-64
2022/07/14 06:03:40;;;;;;;4.55;3.50;;;;;;;21.53;48.38;97176.41;5004746;28;20069;-69
2022/07/14 06:06:08;;;;;;;4.18;3.88;;;;;;;22.95;47.70;97366.44;5011820;28;20092;-66
2022/07/14 06:08:36;;;;;;;3.90;3.60;;;;;;;23.15;47.22;97372.75;5019746;28;20093;-64
2022/07/14 06:11:03;;;;;;;3.55;3.35;;;;;;;23.17;45.17;97339.19;5013200;28;20262;-67
2022/07/14 06:13:32;;;;;;;5.75;3.70;;;;;;;22.40;44.01;97181.84;5019188;28;20050;-68
2022/07/14 06:15:59;;;;;;;4.15;3.88;;;;;;;23.43;44.89;97318.25;5008023;28;20508;-67
2022/07/14 06:18:27;;;;;;;4.30;3.85;;;;;;;23.51;45.36;97330.94;5007891;28;20991;-62
2022/07/14 06:20:55;;;;;;;7.10;4.10;;;;;;;23.99;44.39;97356.19;5012872;28;20452;-68
2022/07/14 06:23:21;;;;;;;5.72;3.80;;;;;;;24.27;44.21;97349.66;5009676;28;20050;-66
2022/07/14 06:25:48;;;;;;;5.38;3.67;;;;;;;24.44;43.73;97353.94;5011042;28;20045;-67
2022/07/14 06:28:15;;;;;;;5.53;5.03;;;;;;;24.62;42.73;97354.16;5010667;28;20116;-66
2022/07/14 06:30:42;;;;;;;5.75;3.88;;;;;;;24.80;42.37;97345.84;5010861;28;20385;-65
2022/07/14 06:33:09;;;;;;;3.92;3.72;;;;;;;24.59;40.25;97258.75;5017623;28;20052;-65
2022/07/14 06:35:40;;;;;;;4.18;3.88;;;;;;;23.58;39.71;97064.88;5019409;28;20530;-65
2022/07/14 06:38:27;;;;;;;4.50;4.30;;;;;;;25.62;38.47;97338.09;5015439;28;20571;-67
2022/07/14 06:40:53;;;;;;;4.30;3.90;;;;;;;25.79;37.98;97316.75;5007483;28;20046;-64
2022/07/14 06:43:22;;;;;;;4.18;3.97;;;;;;;26.02;37.22;97330.47;5020507;28;20140;-70
2022/07/14 06:45:50;;;;;;;5.07;4.32;;;;;;;26.24;36.91;97336.91;5019306;28;20496;-63
2022/07/14 06:48:17;;;;;;;4.38;4.07;;;;;;;26.40;36.78;97334.59;5007925;28;20072;-63
2022/07/14 06:50:45;;;;;;;4.68;4.22;;;;;;;26.14;36.03;97264.25;5012095;28;20578;-65
2022/07/14 06:53:12;;;;;;;4.93;4.43;;;;;;;26.38;35.34;97345.63;5015101;28;20438;-62
2022/07/14 06:55:39;;;;;;;5.30;4.45;;;;;;;26.54;35.29;97328.31;5015689;28;20085;-65
2022/07/14 06:58:06;;;;;;;4.80;4.50;;;;;;;26.55;34.86;97312.06;5009379;28;20358;-64
2022/07/14 07:00:32;;;;;;;4.45;4.22;;;;;;;27.02;34.73;97335.25;5014471;28;20057;-64
2022/07/14 07:02:59;;;;;;;5.18;4.78;;;;;;;27.07;34.75;97328.94;5017144;28;20139;-69
2022/07/14 07:08:13;;;;;;;5.53;4.65;;;;;;;27.16;35.93;97326.06;5009406;28;20046;-67
2022/07/14 07:10:42;;;;;;;4.82;4.55;;;;;;;26.92;35.88;97268.22;5016998;28;20056;-65
2022/07/14 07:13:09;;;;;;;4.68;4.38;;;;;;;27.13;35.65;97307.13;5011310;28;20050;-66
2022/07/14 07:15:37;;;;;;;7.38;5.22;;;;;;;26.02;35.81;97141.00;5011807;28;20141;-69
2022/07/14 07:18:06;;;;;;;5.63;5.18;;;;;;;27.24;35.15;97301.75;5016067;28;20061;-65
2022/07/14 07:20:36;;;;;;;4.68;4.35;;;;;;;27.51;35.42;97321.69;5021646;28;20494;-64
2022/07/14 07:23:04;;;;;;;5.00;4.60;;;;;;;27.57;34.81;97308.38;5016317;28;20173;-65
2022/07/14 07:25:30;;;;;;;5.28;4.97;;;;;;;27.23;34.73;97316.44;5016770;28;20531;-62
2022/07/14 07:27:59;;;;;;;8.43;4.95;;;;;;;27.51;34.52;97321.69;5006752;28;20140;-65
2022/07/14 07:30:25;;;;;;;5.32;4.45;;;;;;;27.67;33.96;97324.19;5008667;28;20095;-63
2022/07/14 07:32:52;;;;;;;4.85;4.65;;;;;;;27.92;32.87;97323.84;5006434;28;20072;-63
2022/07/14 07:35:20;;;;;;;5.35;4.85;;;;;;;28.02;32.71;97311.19;5007906;28;20167;-63
2022/07/14 07:37:47;;;;;;;5.32;5.00;;;;;;;27.36;33.47;97268.75;5006014;28;20054;-62
2022/07/14 07:40:15;;;;;;;4.95;4.63;;;;;;;27.97;32.96;97314.66;5009184;28;20053;-64
2022/07/14 07:42:42;;;;;;;6.30;5.50;;;;;;;28.30;32.85;97308.19;5006516;28;20165;-62
2022/07/14 07:45:10;;;;;;;5.55;5.07;;;;;;;28.21;33.19;97305.41;5008052;28;20137;-64
2022/07/14 07:47:38;;;;;;;12.23;8.35;;;;;;;27.94;34.07;97298.53;5012938;28;20495;-63
2022/07/14 07:50:05;;;;;;;5.78;5.38;;;;;;;28.28;33.03;97299.38;5022285;28;20567;-65
2022/07/14 07:52:32;;;;;;;6.55;5.53;;;;;;;28.04;32.70;97236.63;5010653;28;20058;-65
2022/07/14 07:54:59;;;;;;;7.90;7.15;;;;;;;28.57;33.50;97310.94;5006192;28;20041;-69
2022/07/14 07:57:45;;;;;;;5.30;5.00;;;;;;;28.53;31.98;97276.13;5014828;28;20053;-63
2022/07/14 08:00:13;;;;;;;6.00;5.50;;;;;;;28.36;32.27;97226.50;5009605;28;20050;-62
2022/07/14 08:02:48;;;;;;;16.20;9.35;;;;;;;28.40;31.36;97298.34;5009064;28;20152;-62
2022/07/14 08:05:17;;;;;;;8.57;6.75;;;;;;;27.74;31.91;97252.66;5009568;28;20046;-64
2022/07/14 08:08:07;;;;;;;4.70;4.50;;;;;;;27.70;32.05;97294.75;5006176;28;20061;-62
2022/07/14 08:10:38;;;;;;;5.88;5.40;;;;;;;27.84;32.81;97259.91;5011677;28;20101;-66
2022/07/14 08:13:06;;;;;;;6.22;5.38;;;;;;;28.53;32.03;97294.03;5014105;28;20118;-58
2022/07/14 08:15:33;;;;;;;4.90;4.70;;;;;;;27.86;32.20;97263.09;5018925;28;20050;-63
2022/07/14 08:18:01;;;;;;;5.50;5.20;;;;;;;27.71;32.22;97250.78;5019016;28;20131;-66
2022/07/14 08:20:28;;;;;;;5.45;5.00;;;;;;;28.23;31.78;97308.56;5008316;28;20042;-62
2022/07/14 08:22:58;;;;;;;4.90;4.70;;;;;;;28.15;31.76;97246.22;5012124;28;20057;-63
2022/07/14 08:25:25;;;;;;;5.43;5.07;;;;;;;28.30;31.56;97246.31;5010786;28;20560;-64
2022/07/14 08:27:52;;;;;;;6.80;4.82;;;;;;;28.92;31.74;97281.44;5009183;28;20049;-67
2022/07/14 08:30:20;;;;;;;5.65;5.32;;;;;;;28.39;31.96;97228.38;5009299;28;20053;-63
2022/07/14 08:32:49;;;;;;;5.68;5.28;;;;;;;29.16;30.50;97278.56;5010129;28;20045;-62
2022/07/14 08:35:19;;;;;;;5.63;5.30;;;;;;;28.72;30.41;97169.25;5022048;28;20053;-67
2022/07/14 08:37:46;;;;;;;4.85;4.65;;;;;;;29.34;29.96;97238.44;5020619;28;20049;-63
2022/07/14 08:40:16;;;;;;;5.47;4.95;;;;;;;29.51;30.22;97265.25;5010135;28;20582;-64
2022/07/14 08:42:45;;;;;;;5.13;4.72;;;;;;;29.43;29.68;97252.66;5012391;28;20132;-64
2022/07/14 08:45:15;;;;;;;6.30;5.85;;;;;;;29.14;29.80;97227.69;5014893;28;20061;-61
2022/07/14 08:47:43;;;;;;;4.97;4.78;;;;;;;28.98;30.46;97264.41;5012020;28;20049;-62
2022/07/14 08:50:12;;;;;;;5.72;5.22;;;;;;;27.76;31.54;97210.28;5023350;28;20053;-67
2022/07/14 08:52:41;;;;;;;5.55;5.15;;;;;;;28.76;30.35;97278.19;5012719;28;20056;-68
2022/07/14 08:55:10;;;;;;;5.10;4.90;;;;;;;27.88;31.09;97232.06;5004507;28;20062;-64
2022/07/14 08:57:39;;;;;;;5.72;5.32;;;;;;;28.59;29.95;97235.06;5003700;28;20136;-66
2022/07/14 09:00:10;;;;;;;5.05;4.75;;;;;;;26.48;29.85;96955.09;5003333;28;20050;-63
2022/07/14 09:02:39;;;;;;;5.18;4.78;;;;;;;28.23;30.48;97225.94;5004484;28;20665;-66
2022/07/14 09:05:26;;;;;;;5.63;5.32;;;;;;;28.46;31.42;97265.06;5007818;28;20045;-66
2022/07/14 09:07:56;;;;;;;5.60;5.15;;;;;;;28.78;29.51;97261.41;5004861;28;20049;-66
2022/07/14 09:10:28;;;;;;;7.28;5.30;;;;;;;28.17;30.45;97260.78;5006815;28;20093;-66
2022/07/14 09:13:13;;;;;;;5.63;5.32;;;;;;;28.50;30.02;97254.31;5002826;28;20142;-68
2022/07/14 09:15:46;;;;;;;4.65;4.45;;;;;;;28.54;29.00;97267.09;5007944;28;20046;-67
2022/07/14 09:18:24;;;;;;;5.28;5.07;;;;;;;28.76;29.05;97246.84;5011443;28;20064;-67
2022/07/14 09:20:52;;;;;;;4.78;4.57;;;;;;;28.98;29.56;97256.66;5017001;28;20155;-64
2022/07/14 09:23:35;;;;;;;4.85;4.65;;;;;;;29.12;29.02;97255.13;5003693;28;20053;-63
2022/07/14 09:26:44;;;;;;;5.40;5.00;;;;;;;29.03;29.26;97246.63;5007992;28;20405;-67
2022/07/14 09:29:19;;;;;;;5.15;4.75;;;;;;;29.51;29.41;97245.28;5001963;28;20409;-64
2022/07/14 09:31:47;;;;;;;13.15;10.07;;;;;;;29.80;28.95;97251.00;5009758;28;20417;-63
2022/07/14 09:34:31;;;;;;;7.18;6.43;;;;;;;30.11;28.21;97237.00;5003102;28;20060;-64
2022/07/14 09:37:15;;;;;;;5.28;5.07;;;;;;;30.05;27.82;97207.50;5005184;28;20057;-67
2022/07/14 09:39:56;;;;;;;5.18;4.88;;;;;;;29.71;27.35;97148.28;5007847;28;20050;-67
2022/07/14 09:42:47;;;;;;;6.22;5.78;;;;;;;30.25;27.83;97230.47;5016005;28;20135;-63
2022/07/14 09:45:15;;;;;;;9.70;7.03;;;;;;;30.39;28.65;97220.28;5006048;28;20069;-65
2022/07/14 09:48:04;;;;;;;6.65;6.07;;;;;;;30.71;28.52;97225.66;5010930;28;20072;-64
2022/07/14 09:50:39;;;;;;;8.80;6.53;;;;;;;30.83;28.18;97224.56;5018853;28;20049;-65
2022/07/14 09:53:26;;;;;;;7.38;6.65;;;;;;;30.22;29.45;97233.53;5005251;28;20208;-67
2022/07/14 09:56:09;;;;;;;6.60;6.10;;;;;;;29.57;29.04;97183.34;5005611;28;20056;-66
2022/07/14 09:58:54;;;;;;;7.07;6.57;;;;;;;30.03;29.27;97226.44;5020261;28;20120;-66
2022/07/14 10:01:23;;;;;;;5.20;5.00;;;;;;;30.17;29.20;97194.19;5012429;28;20421;-68
2022/07/14 10:03:54;;;;;;;6.50;6.15;;;;;;;30.53;28.73;97222.28;5004736;28;20049;-67
2022/07/14 10:06:21;;;;;;;5.57;5.07;;;;;;;30.84;28.65;97217.53;5009980;28;20115;-67
2022/07/14 10:09:08;;;;;;;8.23;5.43;;;;;;;29.21;28.32;96918.31;5004237;28;20086;-66
2022/07/14 10:11:36;;;;;;;5.25;5.05;;;;;;;31.23;28.01;97197.19;5010068;28;20470;-67
2022/07/14 10:14:02;;;;;;;5.70;5.30;;;;;;;30.34;28.25;97161.72;5003066;28;20088;-67
2022/07/14 10:16:34;;;;;;;5.20;4.90;;;;;;;30.59;27.77;97163.06;5009852;28;20588;-67
2022/07/14 10:19:03;;;;;;;5.88;5.55;;;;;;;30.62;28.26;97210.72;5004338;28;20512;-64
2022/07/14 10:21:39;;;;;;;5.32;5.03;;;;;;;30.47;28.58;97199.34;5009424;28;20531;-67
2022/07/14 10:24:07;;;;;;;5.80;5.50;;;;;;;30.19;28.19;97149.50;5004361;28;20050;-65
2022/07/14 10:26:35;;;;;;;5.03;4.75;;;;;;;30.63;29.20;97201.66;5010878;28;20046;-64
2022/07/14 10:29:07;;;;;;;5.47;5.18;;;;;;;29.56;29.49;97207.44;5004379;28;20053;-66
2022/07/14 10:32:02;;;;;;;5.95;5.57;;;;;;;30.48;29.07;97200.91;5009226;28;20089;-64
2022/07/14 10:34:51;;;;;;;5.70;5.30;;;;;;;30.98;28.64;97199.50;5000109;28;20640;-63
2022/07/14 10:37:30;;;;;;;5.93;5.53;;;;;;;31.29;27.72;97190.22;5023010;28;20069;-65
2022/07/14 10:40:03;;;;;;;7.13;5.18;;;;;;;31.55;27.67;97193.09;5007352;28;20053;-62
2022/07/14 10:42:41;;;;;;;;;;;;;;;30.81;28.62;97195.66;5014790;28;20054;-66
2022/07/14 10:45:08;;;;;;;5.75;5.45;;;;;;;31.20;27.71;97198.19;5019596;28;20331;-66
2022/07/14 10:47:51;;;;;;;6.00;5.70;;;;;;;31.48;28.08;97194.34;5005506;28;20052;-67
2022/07/14 10:50:21;;;;;;;5.07;4.88;;;;;;;31.01;27.43;97191.19;5013508;28;20049;-66
2022/07/14 10:52:50;;;;;;;5.78;5.38;;;;;;;29.47;28.85;97128.41;5004034;28;20542;-67
2022/07/14 10:55:23;;;;;;;5.68;5.20;;;;;;;29.90;28.58;97189.63;5008070;28;20053;-68
2022/07/14 10:57:59;;;;;;;;;;;;;;;30.60;28.76;97188.31;5019425;28;20052;-68
2022/07/14 11:00:41;;;;;;;5.97;5.55;;;;;;;31.01;28.27;97191.19;5019159;28;19959;-67
2022/07/14 11:03:33;;;;;;;5.15;4.85;;;;;;;31.43;27.53;97182.81;5018979;28;20065;-67
2022/07/14 11:06:09;;;;;;;5.90;5.60;;;;;;;31.52;28.22;97174.06;5008672;28;20554;-67
2022/07/14 11:09:30;;;;;;;6.00;5.55;;;;;;;31.78;27.05;97175.59;5002571;28;20062;-67
2022/07/14 11:12:08;;;;;;;6.28;5.78;;;;;;;32.09;27.54;97183.44;5003363;28;20049;-66
2022/07/14 11:14:43;;;;;;;6.28;5.82;;;;;;;31.68;27.03;97176.31;5002087;28;20053;-65
2022/07/14 11:17:32;;;;;;;5.78;5.47;;;;;;;31.18;28.00;97172.13;5005971;28;20053;-68
2022/07/14 11:19:59;;;;;;;5.55;5.25;;;;;;;31.18;26.66;97120.59;5003317;28;20054;-65
2022/07/14 11:22:26;;;;;;;6.03;5.63;;;;;;;31.07;27.59;97174.88;5007791;28;20050;-65
2022/07/14 11:24:56;;;;;;;5.63;5.32;;;;;;;30.62;28.05;97107.75;5004494;28;20058;-63
2022/07/14 11:27:41;;;;;;;5.60;5.30;;;;;;;30.93;27.77;97163.03;5022428;28;20225;-63
2022/07/14 11:30:28;;;;;;;5.70;5.40;;;;;;;30.72;28.56;97163.50;5008838;28;20058;-64
2022/07/14 11:33:02;;;;;;;5.55;5.35;;;;;;;30.92;28.64;97161.44;5007624;28;20054;-66
2022/07/14 11:38:29;;;;;;;5.30;5.00;;;;;;;30.35;27.90;97128.97;5008003;28;20571;-64
2022/07/14 11:40:56;;;;;;;5.35;5.05;;;;;;;30.67;28.14;97170.75;5013909;28;20053;-67
2022/07/14 11:43:29;;;;;;;5.93;5.53;;;;;;;31.39;27.47;97159.38;5007725;28;20164;-65
2022/07/14 11:46:01;;;;;;;5.68;5.40;;;;;;;31.02;27.33;97142.03;5011848;28;20053;-63
2022/07/14 11:48:32;;;;;;;5.63;5.32;;;;;;;31.20;27.47;97140.94;5007137;28;20449;-65
2022/07/14 11:51:11;;;;;;;5.38;4.93;;;;;;;31.66;27.25;97144.50;5011884;28;20064;-65
2022/07/14 11:53:39;;;;;;;5.80;5.50;;;;;;;31.40;27.64;97155.19;5006000;28;20053;-65
2022/07/14 11:56:07;;;;;;;6.18;5.78;;;;;;;30.90;27.84;97144.00;5013159;28;20529;-63
2022/07/14 11:58:37;;;;;;;6.35;5.75;;;;;;;30.90;28.24;97169.75;5010956;28;20054;-65
2022/07/14 12:01:05;;;;;;;5.63;5.43;;;;;;;31.24;27.88;97158.66;5009912;28;20115;-67